sensor_id;sensor_type;location;lat;lon;timestamp;temperature;humidity
10294;DHT22;5192;50.328;7.610;2022-12-16T00:00:09;-5.70;59.40
10294;DHT22;5192;50.328;7.610;2022-12-16T00:02:36;-5.70;59.40
10294;DHT22;5192;50.328;7.610;2022-12-16T00:05:03;-5.70;59.20
10294;DHT22;5192;50.328;7.610;2022-12-16T00:07:30;-5.80;58.70
10294;DHT22;5192;50.328;7.610;2022-12-16T00:09:57;-5.80;58.50
10294;DHT22;5192;50.328;7.610;2022-12-16T00:12:24;-5.80;58.60
10294;DHT22;5192;50.328;7.610;2022-12-16T00:14:50;-5.80;58.60
10294;DHT22;5192;50.328;7.610;2022-12-16T00:17:18;-5.80;58.80
10294;DHT22;5192;50.328;7.610;2022-12-16T00:19:45;-5.90;58.60
10294;DHT22;5192;50.328;7.610;2022-12-16T00:22:12;-5.90;58.80
10294;DHT22;5192;50.328;7.610;2022-12-16T00:24:39;-5.90;59.10
10294;DHT22;5192;50.328;7.610;2022-12-16T00:27:06;-5.90;58.90
10294;DHT22;5192;50.328;7.610;2022-12-16T00:29:33;-5.90;59.20
10294;DHT22;5192;50.328;7.610;2022-12-16T00:32:00;-6.00;59.00
10294;DHT22;5192;50.328;7.610;2022-12-16T00:34:28;-6.00;59.20
10294;DHT22;5192;50.328;7.610;2022-12-16T00:36:55;-6.00;59.40
10294;DHT22;5192;50.328;7.610;2022-12-16T00:39:22;-6.00;59.30
10294;DHT22;5192;50.328;7.610;2022-12-16T00:41:49;-6.00;59.30
10294;DHT22;5192;50.328;7.610;2022-12-16T00:44:16;-6.10;59.20
10294;DHT22;5192;50.328;7.610;2022-12-16T00:46:44;-6.10;59.00
10294;DHT22;5192;50.328;7.610;2022-12-16T00:49:11;-6.20;58.90
10294;DHT22;5192;50.328;7.610;2022-12-16T00:51:38;-6.20;58.90
10294;DHT22;5192;50.328;7.610;2022-12-16T00:54:06;-6.20;59.00
10294;DHT22;5192;50.328;7.610;2022-12-16T00:56:33;-6.20;59.20
10294;DHT22;5192;50.328;7.610;2022-12-16T00:59:00;-6.10;59.60
10294;DHT22;5192;50.328;7.610;2022-12-16T01:01:28;-6.10;59.60
10294;DHT22;5192;50.328;7.610;2022-12-16T01:03:58;-6.20;60.20
10294;DHT22;5192;50.328;7.610;2022-12-16T01:06:24;-6.20;59.20
10294;DHT22;5192;50.328;7.610;2022-12-16T01:08:50;-6.30;59.20
10294;DHT22;5192;50.328;7.610;2022-12-16T01:11:17;-6.30;59.20
10294;DHT22;5192;50.328;7.610;2022-12-16T01:13:48;-6.40;59.00
10294;DHT22;5192;50.328;7.610;2022-12-16T01:16:16;-6.40;59.20
10294;DHT22;5192;50.328;7.610;2022-12-16T01:18:43;-6.30;59.50
10294;DHT22;5192;50.328;7.610;2022-12-16T01:21:10;-6.30;59.80
10294;DHT22;5192;50.328;7.610;2022-12-16T01:23:41;-6.30;60.00
10294;DHT22;5192;50.328;7.610;2022-12-16T01:26:11;-6.30;59.90
10294;DHT22;5192;50.328;7.610;2022-12-16T01:28:46;-6.30;59.70
10294;DHT22;5192;50.328;7.610;2022-12-16T01:31:14;-6.40;59.40
10294;DHT22;5192;50.328;7.610;2022-12-16T01:33:41;-6.40;59.10
10294;DHT22;5192;50.328;7.610;2022-12-16T01:36:09;-6.40;59.20
10294;DHT22;5192;50.328;7.610;2022-12-16T01:38:39;-6.40;59.10
10294;DHT22;5192;50.328;7.610;2022-12-16T01:41:05;-6.50;58.90
10294;DHT22;5192;50.328;7.610;2022-12-16T01:43:35;-6.50;58.90
10294;DHT22;5192;50.328;7.610;2022-12-16T01:46:22;-6.60;58.60
10294;DHT22;5192;50.328;7.610;2022-12-16T01:49:21;-6.60;58.60
10294;DHT22;5192;50.328;7.610;2022-12-16T01:51:49;-6.60;58.60
10294;DHT22;5192;50.328;7.610;2022-12-16T01:54:28;-6.70;58.40
10294;DHT22;5192;50.328;7.610;2022-12-16T01:56:59;-6.80;58.40
10294;DHT22;5192;50.328;7.610;2022-12-16T01:59:29;-6.70;58.90
10294;DHT22;5192;50.328;7.610;2022-12-16T02:01:57;-6.70;59.10
10294;DHT22;5192;50.328;7.610;2022-12-16T02:04:25;-6.60;59.40
10294;DHT22;5192;50.328;7.610;2022-12-16T02:06:57;-6.70;59.20
10294;DHT22;5192;50.328;7.610;2022-12-16T02:09:24;-6.70;59.10
10294;DHT22;5192;50.328;7.610;2022-12-16T02:17:39;-6.70;58.60
10294;DHT22;5192;50.328;7.610;2022-12-16T02:38:44;-7.10;58.00
10294;DHT22;5192;50.328;7.610;2022-12-16T02:44:06;-7.10;58.60
10294;DHT22;5192;50.328;7.610;2022-12-16T02:46:41;-7.00;58.70
10294;DHT22;5192;50.328;7.610;2022-12-16T02:51:58;-7.00;58.70
10294;DHT22;5192;50.328;7.610;2022-12-16T02:54:27;-7.00;58.60
10294;DHT22;5192;50.328;7.610;2022-12-16T02:57:37;-6.90;58.80
10294;DHT22;5192;50.328;7.610;2022-12-16T03:00:13;-6.90;58.70
10294;DHT22;5192;50.328;7.610;2022-12-16T03:02:58;-6.80;58.50
10294;DHT22;5192;50.328;7.610;2022-12-16T03:05:44;-6.90;58.20
10294;DHT22;5192;50.328;7.610;2022-12-16T03:08:34;-6.90;57.90
10294;DHT22;5192;50.328;7.610;2022-12-16T03:11:06;-6.90;57.50
10294;DHT22;5192;50.328;7.610;2022-12-16T03:13:45;-6.90;57.60
10294;DHT22;5192;50.328;7.610;2022-12-16T03:16:14;-6.90;56.80
10294;DHT22;5192;50.328;7.610;2022-12-16T03:18:50;-6.90;56.50
10294;DHT22;5192;50.328;7.610;2022-12-16T03:21:21;-6.90;56.20
10294;DHT22;5192;50.328;7.610;2022-12-16T03:23:58;-7.00;55.80
10294;DHT22;5192;50.328;7.610;2022-12-16T03:26:50;-7.00;55.60
10294;DHT22;5192;50.328;7.610;2022-12-16T03:29:43;-7.00;55.60
10294;DHT22;5192;50.328;7.610;2022-12-16T03:37:53;-6.90;56.10
10294;DHT22;5192;50.328;7.610;2022-12-16T03:40:21;-6.90;55.60
10294;DHT22;5192;50.328;7.610;2022-12-16T03:42:50;-6.90;55.10
10294;DHT22;5192;50.328;7.610;2022-12-16T03:45:24;-7.00;54.80
10294;DHT22;5192;50.328;7.610;2022-12-16T03:47:55;-7.00;54.60
10294;DHT22;5192;50.328;7.610;2022-12-16T03:50:28;-7.00;55.10
10294;DHT22;5192;50.328;7.610;2022-12-16T03:52:56;-7.10;54.10
10294;DHT22;5192;50.328;7.610;2022-12-16T03:55:24;-7.10;54.40
10294;DHT22;5192;50.328;7.610;2022-12-16T03:57:51;-7.00;54.60
10294;DHT22;5192;50.328;7.610;2022-12-16T04:00:19;-7.00;55.00
10294;DHT22;5192;50.328;7.610;2022-12-16T04:02:49;-7.00;55.10
10294;DHT22;5192;50.328;7.610;2022-12-16T04:05:17;-7.10;54.80
10294;DHT22;5192;50.328;7.610;2022-12-16T04:07:45;-7.20;55.20
10294;DHT22;5192;50.328;7.610;2022-12-16T04:10:13;-7.20;54.80
10294;DHT22;5192;50.328;7.610;2022-12-16T04:12:40;-7.20;55.20
10294;DHT22;5192;50.328;7.610;2022-12-16T04:15:45;-7.10;55.50
10294;DHT22;5192;50.328;7.610;2022-12-16T04:18:30;-7.20;55.50
10294;DHT22;5192;50.328;7.610;2022-12-16T04:21:17;-7.20;55.80
10294;DHT22;5192;50.328;7.610;2022-12-16T04:24:04;-7.20;56.00
10294;DHT22;5192;50.328;7.610;2022-12-16T04:26:50;-7.10;56.30
10294;DHT22;5192;50.328;7.610;2022-12-16T04:29:34;-7.10;56.20
10294;DHT22;5192;50.328;7.610;2022-12-16T04:32:20;-7.10;56.50
10294;DHT22;5192;50.328;7.610;2022-12-16T04:34:47;-7.20;56.20
10294;DHT22;5192;50.328;7.610;2022-12-16T04:37:13;-7.10;56.10
10294;DHT22;5192;50.328;7.610;2022-12-16T04:40:00;-7.10;56.10
10294;DHT22;5192;50.328;7.610;2022-12-16T04:42:45;-7.10;56.00
10294;DHT22;5192;50.328;7.610;2022-12-16T04:45:30;-7.20;55.80
10294;DHT22;5192;50.328;7.610;2022-12-16T04:48:14;-7.20;55.60
10294;DHT22;5192;50.328;7.610;2022-12-16T04:51:01;-7.20;55.50
10294;DHT22;5192;50.328;7.610;2022-12-16T04:53:46;-7.30;55.60
10294;DHT22;5192;50.328;7.610;2022-12-16T04:56:31;-7.40;55.50
10294;DHT22;5192;50.328;7.610;2022-12-16T04:59:17;-7.30;55.90
10294;DHT22;5192;50.328;7.610;2022-12-16T05:02:03;-7.50;56.00
10294;DHT22;5192;50.328;7.610;2022-12-16T05:04:48;-7.20;56.40
10294;DHT22;5192;50.328;7.610;2022-12-16T05:07:34;-7.20;56.30
10294;DHT22;5192;50.328;7.610;2022-12-16T05:10:19;-7.30;56.40
10294;DHT22;5192;50.328;7.610;2022-12-16T05:13:04;-7.30;56.60
10294;DHT22;5192;50.328;7.610;2022-12-16T05:15:50;-7.30;56.20
10294;DHT22;5192;50.328;7.610;2022-12-16T05:18:35;-7.30;56.50
10294;DHT22;5192;50.328;7.610;2022-12-16T05:21:21;-7.30;56.60
10294;DHT22;5192;50.328;7.610;2022-12-16T05:24:08;-7.20;56.50
10294;DHT22;5192;50.328;7.610;2022-12-16T05:26:55;-7.30;56.30
10294;DHT22;5192;50.328;7.610;2022-12-16T05:29:39;-7.30;56.30
10294;DHT22;5192;50.328;7.610;2022-12-16T05:32:25;-7.20;56.20
10294;DHT22;5192;50.328;7.610;2022-12-16T05:35:11;-7.30;55.90
10294;DHT22;5192;50.328;7.610;2022-12-16T05:37:55;-7.30;55.90
10294;DHT22;5192;50.328;7.610;2022-12-16T05:40:42;-7.30;55.40
10294;DHT22;5192;50.328;7.610;2022-12-16T05:43:27;-7.20;55.30
10294;DHT22;5192;50.328;7.610;2022-12-16T05:46:12;-7.20;55.00
10294;DHT22;5192;50.328;7.610;2022-12-16T05:48:57;-7.20;54.70
10294;DHT22;5192;50.328;7.610;2022-12-16T05:51:43;-7.30;54.20
10294;DHT22;5192;50.328;7.610;2022-12-16T05:54:30;-7.40;53.40
10294;DHT22;5192;50.328;7.610;2022-12-16T05:57:15;-7.40;53.30
10294;DHT22;5192;50.328;7.610;2022-12-16T06:00:01;-7.40;53.30
10294;DHT22;5192;50.328;7.610;2022-12-16T06:02:48;-7.50;53.10
10294;DHT22;5192;50.328;7.610;2022-12-16T06:05:34;-7.50;52.90
10294;DHT22;5192;50.328;7.610;2022-12-16T06:08:20;-7.40;52.90
10294;DHT22;5192;50.328;7.610;2022-12-16T06:11:05;-7.50;52.90
10294;DHT22;5192;50.328;7.610;2022-12-16T06:13:50;-7.50;52.60
10294;DHT22;5192;50.328;7.610;2022-12-16T06:16:36;-7.60;52.10
10294;DHT22;5192;50.328;7.610;2022-12-16T06:19:22;-7.60;52.30
10294;DHT22;5192;50.328;7.610;2022-12-16T06:22:06;-7.60;52.50
10294;DHT22;5192;50.328;7.610;2022-12-16T06:24:52;-7.50;52.70
10294;DHT22;5192;50.328;7.610;2022-12-16T06:27:40;-7.50;52.90
10294;DHT22;5192;50.328;7.610;2022-12-16T06:30:24;-7.50;52.90
10294;DHT22;5192;50.328;7.610;2022-12-16T06:33:09;-7.50;52.70
10294;DHT22;5192;50.328;7.610;2022-12-16T06:35:54;-7.60;52.10
10294;DHT22;5192;50.328;7.610;2022-12-16T06:38:40;-7.60;52.10
10294;DHT22;5192;50.328;7.610;2022-12-16T06:41:26;-7.60;51.90
10294;DHT22;5192;50.328;7.610;2022-12-16T06:44:11;-7.60;51.80
10294;DHT22;5192;50.328;7.610;2022-12-16T06:46:55;-7.50;51.80
10294;DHT22;5192;50.328;7.610;2022-12-16T06:49:41;-7.50;51.60
10294;DHT22;5192;50.328;7.610;2022-12-16T06:52:27;-7.50;51.60
10294;DHT22;5192;50.328;7.610;2022-12-16T06:55:15;-7.40;51.50
10294;DHT22;5192;50.328;7.610;2022-12-16T06:58:02;-7.50;51.20
10294;DHT22;5192;50.328;7.610;2022-12-16T07:00:47;-7.40;50.90
10294;DHT22;5192;50.328;7.610;2022-12-16T07:03:32;-7.50;50.50
10294;DHT22;5192;50.328;7.610;2022-12-16T07:06:19;-7.40;50.10
10294;DHT22;5192;50.328;7.610;2022-12-16T07:09:06;-7.60;50.00
10294;DHT22;5192;50.328;7.610;2022-12-16T07:11:50;-7.50;49.70
10294;DHT22;5192;50.328;7.610;2022-12-16T07:14:36;-7.50;49.60
10294;DHT22;5192;50.328;7.610;2022-12-16T07:17:21;-7.50;49.60
10294;DHT22;5192;50.328;7.610;2022-12-16T07:20:09;-7.80;48.80
10294;DHT22;5192;50.328;7.610;2022-12-16T07:22:53;-7.60;48.30
10294;DHT22;5192;50.328;7.610;2022-12-16T07:25:38;-7.60;48.60
10294;DHT22;5192;50.328;7.610;2022-12-16T07:28:25;-7.70;48.40
10294;DHT22;5192;50.328;7.610;2022-12-16T07:31:12;-7.70;48.70
10294;DHT22;5192;50.328;7.610;2022-12-16T07:33:59;-7.70;48.80
10294;DHT22;5192;50.328;7.610;2022-12-16T07:36:45;-7.80;48.70
10294;DHT22;5192;50.328;7.610;2022-12-16T07:39:33;-7.80;48.80
10294;DHT22;5192;50.328;7.610;2022-12-16T07:42:18;-7.80;49.00
10294;DHT22;5192;50.328;7.610;2022-12-16T07:45:05;-7.80;49.30
10294;DHT22;5192;50.328;7.610;2022-12-16T07:47:50;-7.80;49.30
10294;DHT22;5192;50.328;7.610;2022-12-16T07:50:41;-7.80;49.00
10294;DHT22;5192;50.328;7.610;2022-12-16T07:53:26;-7.80;49.00
10294;DHT22;5192;50.328;7.610;2022-12-16T07:56:12;-7.80;48.80
10294;DHT22;5192;50.328;7.610;2022-12-16T07:58:57;-7.80;48.30
10294;DHT22;5192;50.328;7.610;2022-12-16T08:01:42;-7.80;48.40
10294;DHT22;5192;50.328;7.610;2022-12-16T08:04:28;-7.80;48.20
10294;DHT22;5192;50.328;7.610;2022-12-16T08:07:12;-7.90;47.60
10294;DHT22;5192;50.328;7.610;2022-12-16T08:10:00;-7.90;47.60
10294;DHT22;5192;50.328;7.610;2022-12-16T08:12:47;-7.90;47.60
10294;DHT22;5192;50.328;7.610;2022-12-16T08:15:32;-7.90;47.60
10294;DHT22;5192;50.328;7.610;2022-12-16T08:18:19;-8.00;47.70
10294;DHT22;5192;50.328;7.610;2022-12-16T08:21:05;-8.00;47.90
10294;DHT22;5192;50.328;7.610;2022-12-16T08:23:50;-8.00;47.70
10294;DHT22;5192;50.328;7.610;2022-12-16T08:26:35;-8.00;48.10
10294;DHT22;5192;50.328;7.610;2022-12-16T08:29:21;-8.00;48.40
10294;DHT22;5192;50.328;7.610;2022-12-16T08:32:07;-7.90;49.00
10294;DHT22;5192;50.328;7.610;2022-12-16T08:34:53;-7.90;48.80
10294;DHT22;5192;50.328;7.610;2022-12-16T08:37:53;-7.90;48.60
10294;DHT22;5192;50.328;7.610;2022-12-16T08:40:43;-7.90;48.30
10294;DHT22;5192;50.328;7.610;2022-12-16T08:43:32;-7.90;47.50
10294;DHT22;5192;50.328;7.610;2022-12-16T08:46:18;-8.00;46.60
10294;DHT22;5192;50.328;7.610;2022-12-16T08:49:03;-8.10;46.60
10294;DHT22;5192;50.328;7.610;2022-12-16T08:51:49;-8.00;47.60
10294;DHT22;5192;50.328;7.610;2022-12-16T08:54:35;-8.10;47.60
10294;DHT22;5192;50.328;7.610;2022-12-16T08:57:20;-8.20;47.40
10294;DHT22;5192;50.328;7.610;2022-12-16T09:00:08;-8.10;48.30
10294;DHT22;5192;50.328;7.610;2022-12-16T09:02:59;-8.10;48.70
10294;DHT22;5192;50.328;7.610;2022-12-16T09:05:45;-8.10;48.60
10294;DHT22;5192;50.328;7.610;2022-12-16T09:08:30;-8.10;48.90
10294;DHT22;5192;50.328;7.610;2022-12-16T09:11:16;-8.00;49.40
10294;DHT22;5192;50.328;7.610;2022-12-16T09:14:02;-7.90;49.90
10294;DHT22;5192;50.328;7.610;2022-12-16T09:16:50;-7.90;49.30
10294;DHT22;5192;50.328;7.610;2022-12-16T09:19:37;-7.80;48.80
10294;DHT22;5192;50.328;7.610;2022-12-16T09:22:23;-7.80;48.00
10294;DHT22;5192;50.328;7.610;2022-12-16T09:25:08;-7.90;47.10
10294;DHT22;5192;50.328;7.610;2022-12-16T09:27:54;-7.90;46.90
10294;DHT22;5192;50.328;7.610;2022-12-16T09:30:38;-7.80;47.60
10294;DHT22;5192;50.328;7.610;2022-12-16T09:33:23;-7.80;47.30
10294;DHT22;5192;50.328;7.610;2022-12-16T09:36:09;-7.90;47.00
10294;DHT22;5192;50.328;7.610;2022-12-16T09:38:54;-7.90;46.70
10294;DHT22;5192;50.328;7.610;2022-12-16T09:41:48;-7.80;47.60
10294;DHT22;5192;50.328;7.610;2022-12-16T09:48:11;-7.70;48.00
10294;DHT22;5192;50.328;7.610;2022-12-16T09:51:04;-7.70;47.20
10294;DHT22;5192;50.328;7.610;2022-12-16T09:53:52;-7.80;46.60
10294;DHT22;5192;50.328;7.610;2022-12-16T09:56:39;-7.80;46.80
10294;DHT22;5192;50.328;7.610;2022-12-16T09:59:28;-7.70;47.60
10294;DHT22;5192;50.328;7.610;2022-12-16T10:02:20;-7.60;47.80
10294;DHT22;5192;50.328;7.610;2022-12-16T10:05:14;-7.60;47.30
10294;DHT22;5192;50.328;7.610;2022-12-16T10:08:28;-7.50;47.20
10294;DHT22;5192;50.328;7.610;2022-12-16T10:14:27;-7.40;45.50
10294;DHT22;5192;50.328;7.610;2022-12-16T10:17:24;-7.30;44.70
10294;DHT22;5192;50.328;7.610;2022-12-16T10:23:47;-7.30;43.70
10294;DHT22;5192;50.328;7.610;2022-12-16T10:29:58;-7.30;42.10
10294;DHT22;5192;50.328;7.610;2022-12-16T10:32:49;-7.20;42.30
10294;DHT22;5192;50.328;7.610;2022-12-16T10:38:47;-7.20;41.30
10294;DHT22;5192;50.328;7.610;2022-12-16T10:41:37;-7.20;40.10
10294;DHT22;5192;50.328;7.610;2022-12-16T10:47:14;-7.30;39.00
10294;DHT22;5192;50.328;7.610;2022-12-16T10:49:58;-7.30;39.80
10294;DHT22;5192;50.328;7.610;2022-12-16T10:53:17;-7.20;40.20
10294;DHT22;5192;50.328;7.610;2022-12-16T10:59:05;-7.10;39.50
10294;DHT22;5192;50.328;7.610;2022-12-16T11:02:24;-7.10;38.60
10294;DHT22;5192;50.328;7.610;2022-12-16T11:05:34;-7.00;38.30
10294;DHT22;5192;50.328;7.610;2022-12-16T11:08:36;-7.00;37.80
10294;DHT22;5192;50.328;7.610;2022-12-16T11:11:29;-6.90;36.80
10294;DHT22;5192;50.328;7.610;2022-12-16T11:14:37;-7.00;36.00
10294;DHT22;5192;50.328;7.610;2022-12-16T11:17:26;-7.00;35.70
10294;DHT22;5192;50.328;7.610;2022-12-16T11:20:32;-6.90;36.70
10294;DHT22;5192;50.328;7.610;2022-12-16T11:23:23;-6.90;36.60
10294;DHT22;5192;50.328;7.610;2022-12-16T11:26:19;-6.90;36.90
10294;DHT22;5192;50.328;7.610;2022-12-16T11:29:15;-6.90;36.00
10294;DHT22;5192;50.328;7.610;2022-12-16T11:32:23;-6.90;36.20
10294;DHT22;5192;50.328;7.610;2022-12-16T11:35:18;-6.80;36.30
10294;DHT22;5192;50.328;7.610;2022-12-16T11:38:05;-6.70;36.30
10294;DHT22;5192;50.328;7.610;2022-12-16T11:40:55;-6.70;34.60
10294;DHT22;5192;50.328;7.610;2022-12-16T11:43:49;-6.70;33.80
10294;DHT22;5192;50.328;7.610;2022-12-16T11:46:35;-6.60;33.40
10294;DHT22;5192;50.328;7.610;2022-12-16T11:49:38;-6.60;32.80
10294;DHT22;5192;50.328;7.610;2022-12-16T11:52:23;-6.50;33.90
10294;DHT22;5192;50.328;7.610;2022-12-16T11:55:27;-6.40;32.50
10294;DHT22;5192;50.328;7.610;2022-12-16T11:58:39;-6.30;32.30
10294;DHT22;5192;50.328;7.610;2022-12-16T12:01:34;-6.30;30.40
10294;DHT22;5192;50.328;7.610;2022-12-16T12:04:24;-6.40;30.00
10294;DHT22;5192;50.328;7.610;2022-12-16T12:07:46;-6.20;31.40
10294;DHT22;5192;50.328;7.610;2022-12-16T12:13:51;-6.30;29.40
10294;DHT22;5192;50.328;7.610;2022-12-16T12:20:15;-5.70;30.10
10294;DHT22;5192;50.328;7.610;2022-12-16T12:23:07;-5.30;26.60
10294;DHT22;5192;50.328;7.610;2022-12-16T12:26:10;-4.80;23.40
10294;DHT22;5192;50.328;7.610;2022-12-16T12:48:23;-5.00;25.80
10294;DHT22;5192;50.328;7.610;2022-12-16T12:51:30;-4.60;25.20
10294;DHT22;5192;50.328;7.610;2022-12-16T12:57:25;-3.60;16.90
10294;DHT22;5192;50.328;7.610;2022-12-16T13:00:21;-3.20;12.10
10294;DHT22;5192;50.328;7.610;2022-12-16T13:06:38;-3.00;12.30
10294;DHT22;5192;50.328;7.610;2022-12-16T13:09:36;-2.60;7.60
10294;DHT22;5192;50.328;7.610;2022-12-16T13:12:40;-2.40;7.20
10294;DHT22;5192;50.328;7.610;2022-12-16T13:15:41;-2.40;6.70
10294;DHT22;5192;50.328;7.610;2022-12-16T13:18:30;-2.10;5.70
10294;DHT22;5192;50.328;7.610;2022-12-16T13:24:47;-1.50;1.90
10294;DHT22;5192;50.328;7.610;2022-12-16T13:27:53;-1.40;1.00
10294;DHT22;5192;50.328;7.610;2022-12-16T13:30:40;-1.60;1.00
10294;DHT22;5192;50.328;7.610;2022-12-16T13:33:50;-2.10;2.40
10294;DHT22;5192;50.328;7.610;2022-12-16T13:36:35;-1.80;4.10
10294;DHT22;5192;50.328;7.610;2022-12-16T13:48:50;-1.80;2.30
10294;DHT22;5192;50.328;7.610;2022-12-16T13:54:46;-2.30;5.90
10294;DHT22;5192;50.328;7.610;2022-12-16T13:57:36;-2.50;8.00
10294;DHT22;5192;50.328;7.610;2022-12-16T14:00:25;-2.70;10.20
10294;DHT22;5192;50.328;7.610;2022-12-16T14:03:40;-2.90;11.10
10294;DHT22;5192;50.328;7.610;2022-12-16T14:06:36;-3.00;12.70
10294;DHT22;5192;50.328;7.610;2022-12-16T14:09:42;-3.20;15.60
10294;DHT22;5192;50.328;7.610;2022-12-16T14:12:56;-3.40;16.80
10294;DHT22;5192;50.328;7.610;2022-12-16T14:16:05;-3.60;18.60
10294;DHT22;5192;50.328;7.610;2022-12-16T14:19:28;-3.60;20.30
10294;DHT22;5192;50.328;7.610;2022-12-16T14:22:48;-3.70;21.50
10294;DHT22;5192;50.328;7.610;2022-12-16T14:25:38;-3.60;21.50
10294;DHT22;5192;50.328;7.610;2022-12-16T14:28:44;-3.60;22.30
10294;DHT22;5192;50.328;7.610;2022-12-16T14:31:43;-3.60;22.20
10294;DHT22;5192;50.328;7.610;2022-12-16T14:34:34;-3.70;21.90
10294;DHT22;5192;50.328;7.610;2022-12-16T14:37:37;-3.80;22.10
10294;DHT22;5192;50.328;7.610;2022-12-16T14:40:30;-3.90;22.90
10294;DHT22;5192;50.328;7.610;2022-12-16T14:43:24;-4.10;24.80
10294;DHT22;5192;50.328;7.610;2022-12-16T14:46:28;-4.30;25.30
10294;DHT22;5192;50.328;7.610;2022-12-16T14:52:25;-4.70;26.10
10294;DHT22;5192;50.328;7.610;2022-12-16T14:55:30;-5.00;27.50
10294;DHT22;5192;50.328;7.610;2022-12-16T14:58:19;-5.20;29.00
10294;DHT22;5192;50.328;7.610;2022-12-16T15:01:18;-5.40;30.10
10294;DHT22;5192;50.328;7.610;2022-12-16T15:04:12;-5.60;31.20
10294;DHT22;5192;50.328;7.610;2022-12-16T15:06:57;-5.70;32.20
10294;DHT22;5192;50.328;7.610;2022-12-16T15:09:49;-5.90;32.90
10294;DHT22;5192;50.328;7.610;2022-12-16T15:12:41;-5.90;33.40
10294;DHT22;5192;50.328;7.610;2022-12-16T15:15:42;-6.10;33.90
10294;DHT22;5192;50.328;7.610;2022-12-16T15:18:42;-6.20;34.60
10294;DHT22;5192;50.328;7.610;2022-12-16T15:21:32;-6.30;35.00
10294;DHT22;5192;50.328;7.610;2022-12-16T15:24:22;-6.40;35.90
10294;DHT22;5192;50.328;7.610;2022-12-16T15:27:33;-6.50;36.60
10294;DHT22;5192;50.328;7.610;2022-12-16T15:33:34;-6.80;37.20
10294;DHT22;5192;50.328;7.610;2022-12-16T15:36:34;-6.80;37.50
10294;DHT22;5192;50.328;7.610;2022-12-16T15:39:27;-7.00;37.40
10294;DHT22;5192;50.328;7.610;2022-12-16T15:45:30;-7.10;38.00
10294;DHT22;5192;50.328;7.610;2022-12-16T15:48:30;-7.30;38.30
10294;DHT22;5192;50.328;7.610;2022-12-16T15:54:20;-7.40;39.40
10294;DHT22;5192;50.328;7.610;2022-12-16T15:57:31;-7.50;40.30
10294;DHT22;5192;50.328;7.610;2022-12-16T16:00:25;-7.60;40.10
10294;DHT22;5192;50.328;7.610;2022-12-16T16:03:32;-7.60;39.90
10294;DHT22;5192;50.328;7.610;2022-12-16T16:06:25;-7.60;40.00
10294;DHT22;5192;50.328;7.610;2022-12-16T16:09:38;-7.70;40.00
10294;DHT22;5192;50.328;7.610;2022-12-16T16:12:34;-7.70;40.60
10294;DHT22;5192;50.328;7.610;2022-12-16T16:16:28;-7.80;40.40
10294;DHT22;5192;50.328;7.610;2022-12-16T16:19:20;-7.90;40.10
10294;DHT22;5192;50.328;7.610;2022-12-16T16:22:18;-7.90;40.30
10294;DHT22;5192;50.328;7.610;2022-12-16T16:25:21;-7.90;40.20
10294;DHT22;5192;50.328;7.610;2022-12-16T16:28:08;-8.00;40.10
10294;DHT22;5192;50.328;7.610;2022-12-16T16:30:54;-8.00;40.40
10294;DHT22;5192;50.328;7.610;2022-12-16T16:33:38;-8.10;40.40
10294;DHT22;5192;50.328;7.610;2022-12-16T16:36:24;-8.10;40.80
10294;DHT22;5192;50.328;7.610;2022-12-16T16:39:10;-8.10;40.90
10294;DHT22;5192;50.328;7.610;2022-12-16T16:41:56;-8.20;40.60
10294;DHT22;5192;50.328;7.610;2022-12-16T16:44:41;-8.10;41.40
10294;DHT22;5192;50.328;7.610;2022-12-16T16:47:25;-8.10;41.40
10294;DHT22;5192;50.328;7.610;2022-12-16T16:50:14;-8.10;42.30
10294;DHT22;5192;50.328;7.610;2022-12-16T16:53:01;-8.10;42.50
10294;DHT22;5192;50.328;7.610;2022-12-16T16:55:52;-8.10;43.10
10294;DHT22;5192;50.328;7.610;2022-12-16T16:58:37;-7.90;44.00
10294;DHT22;5192;50.328;7.610;2022-12-16T17:01:23;-7.90;44.50
10294;DHT22;5192;50.328;7.610;2022-12-16T17:04:10;-7.80;45.10
10294;DHT22;5192;50.328;7.610;2022-12-16T17:06:55;-7.80;45.90
10294;DHT22;5192;50.328;7.610;2022-12-16T17:09:42;-7.90;45.90
10294;DHT22;5192;50.328;7.610;2022-12-16T17:12:29;-7.90;45.80
10294;DHT22;5192;50.328;7.610;2022-12-16T17:15:33;-8.00;44.90
10294;DHT22;5192;50.328;7.610;2022-12-16T17:18:18;-8.20;43.30
10294;DHT22;5192;50.328;7.610;2022-12-16T17:21:04;-8.20;43.70
10294;DHT22;5192;50.328;7.610;2022-12-16T17:23:50;-8.20;43.60
10294;DHT22;5192;50.328;7.610;2022-12-16T17:26:40;-8.10;43.40
10294;DHT22;5192;50.328;7.610;2022-12-16T17:29:26;-8.20;42.20
10294;DHT22;5192;50.328;7.610;2022-12-16T17:32:11;-8.30;41.60
10294;DHT22;5192;50.328;7.610;2022-12-16T17:35:00;-8.30;40.90
10294;DHT22;5192;50.328;7.610;2022-12-16T17:37:46;-8.30;40.50
10294;DHT22;5192;50.328;7.610;2022-12-16T17:40:31;-8.30;40.90
10294;DHT22;5192;50.328;7.610;2022-12-16T17:43:16;-8.30;41.50
10294;DHT22;5192;50.328;7.610;2022-12-16T17:46:04;-8.20;42.40
10294;DHT22;5192;50.328;7.610;2022-12-16T17:48:54;-8.20;43.90
10294;DHT22;5192;50.328;7.610;2022-12-16T17:51:42;-8.00;45.40
10294;DHT22;5192;50.328;7.610;2022-12-16T17:54:31;-8.00;46.10
10294;DHT22;5192;50.328;7.610;2022-12-16T17:57:15;-7.90;46.50
10294;DHT22;5192;50.328;7.610;2022-12-16T18:00:02;-7.80;46.60
10294;DHT22;5192;50.328;7.610;2022-12-16T18:02:48;-7.80;46.80
10294;DHT22;5192;50.328;7.610;2022-12-16T18:05:32;-7.70;46.90
10294;DHT22;5192;50.328;7.610;2022-12-16T18:08:16;-7.70;47.20
10294;DHT22;5192;50.328;7.610;2022-12-16T18:11:03;-7.60;47.30
10294;DHT22;5192;50.328;7.610;2022-12-16T18:13:47;-7.60;47.50
10294;DHT22;5192;50.328;7.610;2022-12-16T18:16:31;-7.50;48.10
10294;DHT22;5192;50.328;7.610;2022-12-16T18:19:16;-7.50;48.40
10294;DHT22;5192;50.328;7.610;2022-12-16T18:22:02;-7.50;48.70
10294;DHT22;5192;50.328;7.610;2022-12-16T18:24:48;-7.40;48.90
10294;DHT22;5192;50.328;7.610;2022-12-16T18:27:35;-7.40;49.20
10294;DHT22;5192;50.328;7.610;2022-12-16T18:30:19;-7.40;49.30
10294;DHT22;5192;50.328;7.610;2022-12-16T18:33:04;-7.30;49.80
10294;DHT22;5192;50.328;7.610;2022-12-16T18:36:04;-7.30;49.90
10294;DHT22;5192;50.328;7.610;2022-12-16T18:38:48;-7.30;50.20
10294;DHT22;5192;50.328;7.610;2022-12-16T18:41:40;-7.30;50.20
10294;DHT22;5192;50.328;7.610;2022-12-16T18:44:26;-7.30;50.40
10294;DHT22;5192;50.328;7.610;2022-12-16T18:47:11;-7.40;49.90
10294;DHT22;5192;50.328;7.610;2022-12-16T18:49:55;-7.50;50.70
10294;DHT22;5192;50.328;7.610;2022-12-16T18:52:41;-7.50;51.10
10294;DHT22;5192;50.328;7.610;2022-12-16T18:55:27;-7.50;51.20
10294;DHT22;5192;50.328;7.610;2022-12-16T18:58:13;-7.50;51.10
10294;DHT22;5192;50.328;7.610;2022-12-16T19:01:02;-7.40;51.60
10294;DHT22;5192;50.328;7.610;2022-12-16T19:03:48;-7.40;51.60
10294;DHT22;5192;50.328;7.610;2022-12-16T19:06:33;-7.20;51.60
10294;DHT22;5192;50.328;7.610;2022-12-16T19:09:19;-7.40;51.30
10294;DHT22;5192;50.328;7.610;2022-12-16T19:12:06;-7.40;50.70
10294;DHT22;5192;50.328;7.610;2022-12-16T19:14:51;-7.40;50.70
10294;DHT22;5192;50.328;7.610;2022-12-16T19:17:36;-7.40;50.80
10294;DHT22;5192;50.328;7.610;2022-12-16T19:20:22;-7.40;50.90
10294;DHT22;5192;50.328;7.610;2022-12-16T19:23:08;-7.40;50.50
10294;DHT22;5192;50.328;7.610;2022-12-16T19:25:57;-7.30;51.00
10294;DHT22;5192;50.328;7.610;2022-12-16T19:28:42;-7.30;51.10
10294;DHT22;5192;50.328;7.610;2022-12-16T19:31:27;-7.30;50.90
10294;DHT22;5192;50.328;7.610;2022-12-16T19:34:13;-7.30;51.00
10294;DHT22;5192;50.328;7.610;2022-12-16T19:36:57;-7.20;51.20
10294;DHT22;5192;50.328;7.610;2022-12-16T19:39:42;-7.20;51.30
10294;DHT22;5192;50.328;7.610;2022-12-16T19:42:28;-7.10;51.60
10294;DHT22;5192;50.328;7.610;2022-12-16T19:45:12;-7.10;51.70